首页
METAR-TAF:

METAR-TAF

机场 :

阿比林, 得克萨斯州, 美国

纬度: 32-25-12N, 经度: 099-51-25W, 海拔: 545米

当前天气观测

该预报发布于32分钟前的14:55 UTC
风速11节,风向
温度 30°C
湿度 59%
气压 1016 hPa
能見度: 16.1公里
天空无云

METAR: KDYS 241455Z AUTO 18011KT 10SM CLR 30/21 A3000 RMK AO2 SLP128 T02990210 52010 $

时间: 10:27 (15:27 UTC)

预报

该预报发布于4小时和27分钟前的11:00 UTC
预报有效从24日的 11点(UTC)到 25日的 17点(UTC)
风速12节,风向
能见度10公里或以上
天空无云
成为
从 24日的 16点(UTC)到 24日的 17点(UTC)
风速6节,风向多变
能见度10公里或以上
天空无云
成为
从 24日的 21点(UTC)到 24日的 22点(UTC)
风速9节,风向南转南东
能见度10公里或以上
天空无云
成为
从 25日的 02点(UTC)到 25日的 03点(UTC)
风速12节,风向东南
能见度10公里或以上
天空无云
成为
从 25日的 09点(UTC)到 25日的 10点(UTC)
风速12节,风向
能见度10公里或以上
天空无云
成为
从 25日的 13点(UTC)到 25日的 14点(UTC)
风速12节,风向南转西南,有时为18节阵风
能见度10公里或以上
天空无云

TAF: KDYS 241100Z 2411/2517 19012KT 9999 SKC QNH2997INS BECMG 2416/2417 VRB06KT 9999 SKC QNH2997INS BECMG 2421/2422 15009KT 9999 SKC QNH2986INS BECMG 2502/2503 14012KT 9999 SKC QNH2983INS BECMG 2509/2510 18012KT 9999 SKC QNH2988INS BECMG 2513/2514 21012G18KT 9999 SKC QNH2990INS TX38/2421Z TN23/2412Z

超过4000个机场的气象观测和天气预报(METAR&TAF报告)。

可查询的气象台以黄色和红色小点在地图上表示。

将鼠标移到小点上方,可查看气象台名称。

然后点击查看天气观测和预报。

如需切换地图:点击带黑十字的绿色按钮放大地图;点击带横线的绿色按钮缩小地图;或者点击绿色箭头查看邻近地区的地图。


METAR-TAF: